createdAt,value
2019-03-26T00:01:01.983Z,30.37
2019-03-26T00:03:29.328Z,28.70
2019-03-26T00:05:57.081Z,23.40
2019-03-26T00:08:24.405Z,31.67
2019-03-26T00:10:51.747Z,29.60
2019-03-26T00:13:19.769Z,32.00
2019-03-26T00:15:48.418Z,36.17
2019-03-26T00:18:15.717Z,30.37
2019-03-26T00:20:43.034Z,28.77
2019-03-26T00:23:13.237Z,28.93
2019-03-26T00:25:40.617Z,22.37
2019-03-26T00:28:08.009Z,26.53
2019-03-26T00:30:35.370Z,27.03
2019-03-26T00:33:04.344Z,28.10
2019-03-26T00:35:31.699Z,27.07
2019-03-26T00:37:59.165Z,21.00
2019-03-26T00:40:26.597Z,22.13
2019-03-26T00:42:54.019Z,21.67
2019-03-26T00:45:21.792Z,19.23
2019-03-26T00:47:51.716Z,20.20
2019-03-26T00:50:19.151Z,15.57
2019-03-26T00:52:46.515Z,14.53
2019-03-26T00:55:22.616Z,17.47
2019-03-26T00:57:42.976Z,20.20
2019-03-26T01:00:11.855Z,19.50
2019-03-26T01:02:39.183Z,20.13
2019-03-26T01:05:06.739Z,19.23
2019-03-26T01:07:34.451Z,19.60
2019-03-26T01:10:01.823Z,20.83
2019-03-26T01:12:31.172Z,19.43
2019-03-26T01:14:58.255Z,21.37
2019-03-26T01:17:25.680Z,19.63
2019-03-26T01:19:53.027Z,21.10
2019-03-26T01:22:20.387Z,18.33
2019-03-26T01:24:47.827Z,23.67
2019-03-26T01:27:15.166Z,21.03
2019-03-26T01:29:42.488Z,19.87
2019-03-26T01:32:09.856Z,16.70
2019-03-26T01:34:45.790Z,23.37
2019-03-26T01:37:06.270Z,20.50
2019-03-26T01:39:33.732Z,17.80
2019-03-26T01:42:01.137Z,17.83
2019-03-26T01:44:28.533Z,21.07
2019-03-26T01:46:55.951Z,25.90
2019-03-26T01:49:23.293Z,17.97
2019-03-26T01:51:50.720Z,19.30
2019-03-26T01:54:18.050Z,20.50
2019-03-26T01:56:45.462Z,21.70
2019-03-26T01:59:12.807Z,19.37
2019-03-26T02:01:40.203Z,17.17
2019-03-26T02:04:07.590Z,22.97
2019-03-26T02:06:35.002Z,20.17
2019-03-26T02:09:02.369Z,18.57
2019-03-26T02:11:29.685Z,17.07
2019-03-26T02:13:57.097Z,16.73
2019-03-26T02:16:24.423Z,20.83
2019-03-26T02:18:51.760Z,18.30
2019-03-26T02:21:19.528Z,20.07
2019-03-26T02:23:46.852Z,18.90
2019-03-26T02:26:14.191Z,17.23
2019-03-26T02:28:41.554Z,20.43
2019-03-26T02:31:08.963Z,16.10
2019-03-26T02:33:36.290Z,22.13
2019-03-26T02:36:03.650Z,20.57
2019-03-26T02:38:31.158Z,21.83
2019-03-26T02:40:58.512Z,22.50
2019-03-26T02:43:26.598Z,22.90
2019-03-26T02:45:53.991Z,20.17
2019-03-26T02:48:21.346Z,23.67
2019-03-26T02:50:48.967Z,22.87
2019-03-26T02:53:16.355Z,22.53
2019-03-26T02:55:43.689Z,21.47
2019-03-26T02:58:11.109Z,22.47
2019-03-26T03:00:38.532Z,29.53
2019-03-26T03:03:05.959Z,26.87
2019-03-26T03:05:35.491Z,28.50
2019-03-26T03:08:02.533Z,27.33
2019-03-26T03:10:29.876Z,29.37
2019-03-26T03:12:57.222Z,37.87
2019-03-26T03:15:24.637Z,29.80
2019-03-26T03:17:51.962Z,28.97
2019-03-26T03:20:19.308Z,32.17
2019-03-26T03:22:46.647Z,21.23
2019-03-26T03:25:13.986Z,30.27
2019-03-26T03:27:41.513Z,33.80
2019-03-26T03:30:08.922Z,34.93
2019-03-26T03:32:36.328Z,29.50
2019-03-26T03:35:04.818Z,24.87
2019-03-26T03:37:32.377Z,25.03
2019-03-26T03:39:59.905Z,26.33
2019-03-26T03:42:27.225Z,35.83
2019-03-26T03:44:54.547Z,33.57
2019-03-26T03:47:21.961Z,27.23
2019-03-26T03:49:49.358Z,24.17
2019-03-26T03:52:16.670Z,26.10
2019-03-26T03:54:44.076Z,31.03
2019-03-26T03:57:11.403Z,28.63
2019-03-26T03:59:38.819Z,25.63
2019-03-26T04:02:06.157Z,30.77
2019-03-26T04:04:33.518Z,28.10
2019-03-26T04:07:00.815Z,27.90
2019-03-26T04:09:28.181Z,25.57
2019-03-26T04:11:55.585Z,26.07
2019-03-26T04:14:23.001Z,23.43
2019-03-26T04:16:50.328Z,26.03
2019-03-26T04:19:17.682Z,25.00
2019-03-26T04:21:45.012Z,29.70
2019-03-26T04:24:12.419Z,22.00
2019-03-26T04:26:39.872Z,31.10
2019-03-26T04:29:07.343Z,22.70
2019-03-26T04:31:34.747Z,24.30
2019-03-26T04:34:02.174Z,23.60
2019-03-26T04:36:29.520Z,27.07
2019-03-26T04:38:56.932Z,22.10
2019-03-26T04:41:24.417Z,21.57
2019-03-26T04:43:51.806Z,25.40
2019-03-26T04:46:19.111Z,20.13
2019-03-26T04:48:46.525Z,26.13
2019-03-26T04:51:13.941Z,21.00
2019-03-26T04:53:41.387Z,19.87
2019-03-26T04:56:08.763Z,22.87
2019-03-26T04:58:36.080Z,19.73
2019-03-26T05:01:04.027Z,23.13
2019-03-26T05:03:31.428Z,29.20
2019-03-26T05:05:58.772Z,22.30
2019-03-26T05:08:26.175Z,23.73
2019-03-26T05:10:53.711Z,50.73
2019-03-26T05:13:21.321Z,34.67
2019-03-26T05:15:48.705Z,30.60
2019-03-26T05:18:16.054Z,26.83
2019-03-26T05:20:45.460Z,28.67
2019-03-26T05:23:13.912Z,27.13
2019-03-26T05:25:43.984Z,29.70
2019-03-26T05:28:11.475Z,29.67
2019-03-26T05:30:38.791Z,30.97
2019-03-26T05:33:06.311Z,29.23
2019-03-26T05:35:35.344Z,34.63
2019-03-26T05:38:02.690Z,28.90
2019-03-26T05:40:30.154Z,28.90
2019-03-26T05:43:04.855Z,22.50
2019-03-26T05:45:32.271Z,26.17
2019-03-26T05:47:59.695Z,21.47
2019-03-26T05:50:28.693Z,22.87
2019-03-26T05:52:56.148Z,24.37
2019-03-26T05:55:23.669Z,33.63
2019-03-26T05:57:51.075Z,32.83
2019-03-26T06:00:21.733Z,33.37
2019-03-26T06:02:49.069Z,25.97
2019-03-26T06:05:16.642Z,24.63
2019-03-26T06:07:44.499Z,30.33
2019-03-26T06:10:12.015Z,22.63
2019-03-26T06:12:39.423Z,20.87
2019-03-26T06:15:07.788Z,27.50
2019-03-26T06:17:35.216Z,26.37
2019-03-26T06:20:02.869Z,28.10
2019-03-26T06:22:30.249Z,31.53
2019-03-26T06:24:59.361Z,22.20
2019-03-26T06:27:27.914Z,22.67
2019-03-26T06:29:55.216Z,24.53
2019-03-26T06:32:22.568Z,25.27
2019-03-26T06:34:51.125Z,23.83
2019-03-26T06:37:18.532Z,25.37
2019-03-26T06:39:46.947Z,22.53
2019-03-26T06:42:14.414Z,34.83
2019-03-26T06:44:41.805Z,24.07
2019-03-26T06:47:10.868Z,25.23
2019-03-26T06:49:38.222Z,24.07
2019-03-26T06:52:05.682Z,39.37
2019-03-26T06:54:33.136Z,34.77
2019-03-26T06:57:00.464Z,30.10
2019-03-26T06:59:27.869Z,32.00
2019-03-26T07:01:55.798Z,29.73
2019-03-26T07:04:23.206Z,36.53
2019-03-26T07:06:50.704Z,38.50
2019-03-26T07:09:18.197Z,33.77
2019-03-26T07:11:49.421Z,31.73
2019-03-26T07:14:19.674Z,28.73
2019-03-26T07:16:47.264Z,29.43
2019-03-26T07:19:14.654Z,33.30
2019-03-26T07:21:49.555Z,33.80
2019-03-26T07:24:11.206Z,34.13
2019-03-26T07:26:40.561Z,35.60
2019-03-26T07:29:11.854Z,30.67
2019-03-26T07:31:39.318Z,36.27
2019-03-26T07:34:07.259Z,29.67
2019-03-26T07:36:34.862Z,27.07
2019-03-26T07:39:02.357Z,24.87
2019-03-26T07:41:29.846Z,24.13
2019-03-26T07:43:57.323Z,24.50
2019-03-26T07:46:24.840Z,25.67
2019-03-26T07:48:52.342Z,22.97
2019-03-26T07:51:19.776Z,21.83
2019-03-26T07:53:47.115Z,21.53
2019-03-26T07:56:14.606Z,18.97
2019-03-26T07:58:42.117Z,22.80
2019-03-26T08:01:09.568Z,23.87
2019-03-26T08:03:36.961Z,19.87
2019-03-26T08:06:04.305Z,26.17
2019-03-26T08:08:31.701Z,26.80
2019-03-26T08:10:59.134Z,26.50
2019-03-26T08:13:26.547Z,27.90
2019-03-26T08:15:53.951Z,24.37
2019-03-26T08:18:21.244Z,27.23
2019-03-26T08:20:48.771Z,20.60
2019-03-26T08:23:16.023Z,21.27
2019-03-26T08:25:43.353Z,27.43
2019-03-26T08:28:10.707Z,24.63
2019-03-26T08:30:38.125Z,27.43
2019-03-26T08:33:05.515Z,28.43
2019-03-26T08:35:32.870Z,25.17
2019-03-26T08:38:11.389Z,24.20
2019-03-26T08:40:30.655Z,24.17
2019-03-26T08:42:58.973Z,20.23
2019-03-26T08:45:26.287Z,24.30
2019-03-26T08:47:53.828Z,19.50
2019-03-26T08:50:21.143Z,20.20
2019-03-26T08:52:48.563Z,21.07
2019-03-26T08:55:16.010Z,20.33
2019-03-26T08:57:43.382Z,20.10
2019-03-26T09:00:11.499Z,21.67
2019-03-26T09:02:38.880Z,18.33
2019-03-26T09:05:06.572Z,17.27
2019-03-26T09:07:33.900Z,14.63
2019-03-26T09:10:02.115Z,11.73
2019-03-26T09:12:29.435Z,10.57
2019-03-26T09:14:57.096Z,8.37
2019-03-26T09:17:24.441Z,12.77
2019-03-26T09:19:51.732Z,9.23
2019-03-26T09:22:19.211Z,11.43
2019-03-26T09:24:46.607Z,11.33
2019-03-26T09:27:18.603Z,8.17
2019-03-26T09:29:45.980Z,11.57
2019-03-26T09:32:13.414Z,11.13
2019-03-26T09:34:40.954Z,10.67
2019-03-26T09:37:08.242Z,9.80
2019-03-26T09:39:38.255Z,14.77
2019-03-26T09:42:04.830Z,14.83
2019-03-26T09:44:32.141Z,13.63
2019-03-26T09:46:59.688Z,11.77
2019-03-26T09:49:27.031Z,12.73
2019-03-26T09:51:54.366Z,9.93
2019-03-26T09:54:21.690Z,11.50
2019-03-26T09:56:49.152Z,7.30
2019-03-26T09:59:18.304Z,7.97
2019-03-26T10:01:45.605Z,5.73
2019-03-26T10:04:15.616Z,9.57
2019-03-26T10:06:42.968Z,10.73
2019-03-26T10:09:10.293Z,10.27
2019-03-26T10:11:37.645Z,9.90
2019-03-26T10:14:05.019Z,8.17
2019-03-26T10:16:34.640Z,9.20
2019-03-26T10:19:02.475Z,8.50
2019-03-26T10:21:29.848Z,6.73
2019-03-26T10:23:57.263Z,11.83
2019-03-26T10:26:24.649Z,8.07
2019-03-26T10:28:52.003Z,9.57
2019-03-26T10:31:22.827Z,9.53
2019-03-26T10:33:50.143Z,6.77
2019-03-26T10:36:19.099Z,9.73
2019-03-26T10:38:46.524Z,8.83
2019-03-26T10:41:13.851Z,10.37
2019-03-26T10:43:42.611Z,9.37
2019-03-26T10:46:09.907Z,10.20
2019-03-26T10:48:37.262Z,14.30
2019-03-26T10:51:04.658Z,14.77
2019-03-26T10:53:34.888Z,11.03
2019-03-26T10:56:02.364Z,9.57
2019-03-26T10:58:29.807Z,9.07
2019-03-26T11:00:57.202Z,9.53
2019-03-26T11:03:24.585Z,8.13
2019-03-26T11:05:52.025Z,8.33
2019-03-26T11:08:19.444Z,14.10
2019-03-26T11:10:46.761Z,8.83
2019-03-26T11:13:14.103Z,11.57
2019-03-26T11:15:43.116Z,8.60
2019-03-26T11:18:13.153Z,9.13
2019-03-26T11:20:39.532Z,9.30
2019-03-26T11:23:07.761Z,4.73
2019-03-26T11:25:35.198Z,7.97
2019-03-26T11:28:02.638Z,5.80
2019-03-26T11:30:30.041Z,11.07
2019-03-26T11:32:57.429Z,7.77
2019-03-26T11:35:24.810Z,6.67
2019-03-26T11:37:52.167Z,7.13
2019-03-26T11:40:19.721Z,7.40
2019-03-26T11:42:52.723Z,7.97
2019-03-26T11:45:20.050Z,7.40
2019-03-26T11:47:47.475Z,6.53
2019-03-26T11:50:14.779Z,10.13
2019-03-26T11:52:42.175Z,8.40
2019-03-26T11:55:12.603Z,6.43
2019-03-26T11:57:39.916Z,7.40
2019-03-26T12:00:08.202Z,5.83
2019-03-26T12:02:35.578Z,5.77
2019-03-26T12:05:03.616Z,5.10
2019-03-26T12:07:30.954Z,7.93
2019-03-26T12:10:00.872Z,6.13
2019-03-26T12:12:27.947Z,9.47
2019-03-26T12:14:55.270Z,4.57
2019-03-26T12:17:22.630Z,7.27
2019-03-26T12:19:49.970Z,7.57
2019-03-26T12:22:18.558Z,6.13
2019-03-26T12:24:46.115Z,8.23
2019-03-26T12:27:14.562Z,9.37
2019-03-26T12:29:41.882Z,7.93
2019-03-26T12:32:09.353Z,7.60
2019-03-26T12:34:36.806Z,6.27
2019-03-26T12:37:04.120Z,22.67
2019-03-26T12:39:31.594Z,8.40
2019-03-26T12:41:58.886Z,5.53
2019-03-26T12:44:26.182Z,5.80
2019-03-26T12:46:53.529Z,6.60
2019-03-26T12:49:22.616Z,8.30
2019-03-26T12:51:49.925Z,6.73
2019-03-26T12:54:17.264Z,7.50
2019-03-26T12:56:44.706Z,8.43
2019-03-26T12:59:12.346Z,4.00
2019-03-26T13:01:39.726Z,6.07
2019-03-26T13:04:12.626Z,6.93
2019-03-26T13:06:36.071Z,9.07
2019-03-26T13:09:04.452Z,3.67
2019-03-26T13:11:31.814Z,2.33
2019-03-26T13:13:59.408Z,4.47
2019-03-26T13:16:26.672Z,5.33
2019-03-26T13:18:54.006Z,4.87
2019-03-26T13:21:21.391Z,5.40
2019-03-26T13:23:48.682Z,10.10
2019-03-26T13:26:16.312Z,13.07
2019-03-26T13:28:43.676Z,11.77
2019-03-26T13:31:10.990Z,13.90
2019-03-26T13:33:38.295Z,6.53
2019-03-26T13:36:05.673Z,12.27
2019-03-26T13:38:33.066Z,6.00
2019-03-26T13:41:00.411Z,4.77
2019-03-26T13:43:27.829Z,6.00
2019-03-26T13:45:55.146Z,3.83
2019-03-26T13:48:22.492Z,5.63
2019-03-26T13:50:49.848Z,9.10
2019-03-26T13:53:17.351Z,6.43
2019-03-26T13:55:44.666Z,4.80
2019-03-26T13:58:13.012Z,5.90
2019-03-26T14:00:40.313Z,3.17
2019-03-26T14:03:07.687Z,8.97
2019-03-26T14:05:35.146Z,4.13
2019-03-26T14:08:02.448Z,7.87
2019-03-26T14:10:40.155Z,4.20
2019-03-26T14:12:58.943Z,9.27
2019-03-26T14:15:26.242Z,9.60
2019-03-26T14:17:53.637Z,6.93
2019-03-26T14:20:20.953Z,10.90
2019-03-26T14:22:48.331Z,10.77
2019-03-26T14:25:15.644Z,10.90
2019-03-26T14:27:42.963Z,13.50
2019-03-26T14:30:10.501Z,15.67
2019-03-26T14:32:39.217Z,15.13
2019-03-26T14:35:06.540Z,15.27
2019-03-26T14:37:33.887Z,8.93
2019-03-26T14:40:01.190Z,9.20
2019-03-26T14:42:28.533Z,11.20
2019-03-26T14:44:55.945Z,23.40
2019-03-26T14:47:23.309Z,17.67
2019-03-26T14:49:50.629Z,10.70
2019-03-26T14:52:18.080Z,14.60
2019-03-26T14:54:45.385Z,13.73
2019-03-26T14:57:12.814Z,22.97
2019-03-26T14:59:40.219Z,15.13
2019-03-26T15:02:07.631Z,18.07
2019-03-26T15:04:35.023Z,34.03
2019-03-26T15:07:02.361Z,37.40
2019-03-26T15:09:29.738Z,34.27
2019-03-26T15:11:57.055Z,46.77
2019-03-26T15:14:24.407Z,28.80
2019-03-26T15:16:51.751Z,24.57
2019-03-26T15:19:19.085Z,20.33
2019-03-26T15:21:46.613Z,21.23
2019-03-26T15:24:13.929Z,14.10
2019-03-26T15:26:41.323Z,15.80
2019-03-26T15:29:08.705Z,17.57
2019-03-26T15:31:36.022Z,9.00
2019-03-26T15:34:03.341Z,14.10
2019-03-26T15:36:30.738Z,10.47
2019-03-26T15:38:58.123Z,10.93
2019-03-26T15:41:25.644Z,10.40
2019-03-26T15:43:53.018Z,12.70
2019-03-26T15:46:20.337Z,12.43
2019-03-26T15:48:47.658Z,9.20
2019-03-26T15:51:15.096Z,11.23
2019-03-26T15:53:42.473Z,17.20
2019-03-26T15:56:09.802Z,16.83
2019-03-26T15:58:37.215Z,13.03
2019-03-26T16:01:04.519Z,12.10
2019-03-26T16:03:31.838Z,15.40
2019-03-26T16:05:59.199Z,20.53
2019-03-26T16:08:26.837Z,10.57
2019-03-26T16:10:55.522Z,15.80
2019-03-26T16:13:22.904Z,11.43
2019-03-26T16:15:51.803Z,17.07
2019-03-26T16:18:19.338Z,11.00
2019-03-26T16:20:46.805Z,11.27
2019-03-26T16:23:14.247Z,13.07
2019-03-26T16:25:41.564Z,10.37
2019-03-26T16:28:08.876Z,16.17
2019-03-26T16:30:36.354Z,10.60
2019-03-26T16:33:03.773Z,10.50
2019-03-26T16:35:31.252Z,10.40
2019-03-26T16:38:00.159Z,8.93
2019-03-26T16:40:29.814Z,12.60
2019-03-26T16:42:57.112Z,10.33
2019-03-26T16:45:25.496Z,12.60
2019-03-26T16:47:54.532Z,8.40
2019-03-26T16:50:21.894Z,13.73
2019-03-26T16:52:49.320Z,8.50
2019-03-26T16:55:16.714Z,13.47
2019-03-26T16:57:44.064Z,8.07
2019-03-26T17:00:12.569Z,9.07
2019-03-26T17:02:40.122Z,11.17
2019-03-26T17:05:07.510Z,8.67
2019-03-26T17:07:35.007Z,17.83
2019-03-26T17:10:04.037Z,19.07
2019-03-26T17:12:31.887Z,12.53
2019-03-26T17:15:00.503Z,25.30
2019-03-26T17:17:27.875Z,12.40
2019-03-26T17:19:55.246Z,18.83
2019-03-26T17:22:22.648Z,28.63
2019-03-26T17:24:50.176Z,23.23
2019-03-26T17:27:17.486Z,26.13
2019-03-26T17:29:44.941Z,22.67
2019-03-26T17:32:15.024Z,14.27
2019-03-26T17:34:42.335Z,16.23
2019-03-26T17:37:09.661Z,13.47
2019-03-26T17:39:37.008Z,18.03
2019-03-26T17:42:16.664Z,26.07
2019-03-26T17:44:35.433Z,30.93
2019-03-26T17:47:02.746Z,15.20
2019-03-26T17:49:30.171Z,16.33
2019-03-26T17:51:57.628Z,16.93
2019-03-26T17:54:26.674Z,17.60
2019-03-26T17:56:55.791Z,12.93
2019-03-26T17:59:23.432Z,22.13
2019-03-26T18:01:53.042Z,18.37
2019-03-26T18:04:19.993Z,17.10
2019-03-26T18:06:47.327Z,15.87
2019-03-26T18:09:14.789Z,13.27
2019-03-26T18:11:42.256Z,19.63
2019-03-26T18:14:09.725Z,11.00
2019-03-26T18:16:37.351Z,15.67
2019-03-26T18:19:04.660Z,15.93
2019-03-26T18:21:32.184Z,18.00
2019-03-26T18:23:59.585Z,12.67
2019-03-26T18:26:26.908Z,17.80
2019-03-26T18:28:55.558Z,12.10
2019-03-26T18:31:23.004Z,15.17
2019-03-26T18:33:50.380Z,16.37
2019-03-26T18:36:17.844Z,16.90
2019-03-26T18:38:45.260Z,15.03
2019-03-26T18:41:12.621Z,15.20
2019-03-26T18:43:40.397Z,11.80
2019-03-26T18:46:07.741Z,15.13
2019-03-26T18:48:35.125Z,15.87
2019-03-26T18:51:02.446Z,16.33
2019-03-26T18:53:29.785Z,17.87
2019-03-26T18:55:57.273Z,18.77
2019-03-26T18:58:24.659Z,20.27
2019-03-26T19:00:53.787Z,24.27
2019-03-26T19:03:21.188Z,26.77
2019-03-26T19:05:48.638Z,18.97
2019-03-26T19:08:15.929Z,21.57
2019-03-26T19:10:43.468Z,13.33
2019-03-26T19:13:19.345Z,12.50
2019-03-26T19:15:40.012Z,22.83
2019-03-26T19:18:07.372Z,18.80
2019-03-26T19:20:34.755Z,25.33
2019-03-26T19:23:02.198Z,33.40
2019-03-26T19:25:29.638Z,11.00
2019-03-26T19:27:57.036Z,13.97
2019-03-26T19:30:28.444Z,14.07
2019-03-26T19:32:53.528Z,15.90
2019-03-26T19:35:20.844Z,14.03
2019-03-26T19:37:48.209Z,22.00
2019-03-26T19:40:15.581Z,26.10
2019-03-26T19:42:43.218Z,19.40
2019-03-26T19:45:10.539Z,15.70
2019-03-26T19:47:38.065Z,16.90
2019-03-26T19:50:06.922Z,20.50
2019-03-26T19:52:34.395Z,17.60
2019-03-26T19:55:03.549Z,23.23
2019-03-26T19:57:30.995Z,31.17
2019-03-26T19:59:58.380Z,29.60
2019-03-26T20:02:25.699Z,19.73
2019-03-26T20:04:53.208Z,17.63
2019-03-26T20:07:20.708Z,21.83
2019-03-26T20:09:48.132Z,30.23
2019-03-26T20:12:15.476Z,20.73
2019-03-26T20:14:42.904Z,19.10
2019-03-26T20:17:11.299Z,20.83
2019-03-26T20:19:38.694Z,24.43
2019-03-26T20:22:06.054Z,22.63
2019-03-26T20:24:33.380Z,27.33
2019-03-26T20:27:00.926Z,28.70
2019-03-26T20:29:28.276Z,32.20
2019-03-26T20:31:55.708Z,23.07
2019-03-26T20:34:23.050Z,24.73
2019-03-26T20:36:50.508Z,18.57
2019-03-26T20:39:17.817Z,19.50
2019-03-26T20:41:45.249Z,24.30
2019-03-26T20:44:12.624Z,26.80
2019-03-26T20:46:40.055Z,32.80
2019-03-26T20:49:07.384Z,31.53
2019-03-26T20:51:34.804Z,25.37
2019-03-26T20:54:02.162Z,21.43
2019-03-26T20:56:29.590Z,18.57
2019-03-26T20:58:58.155Z,24.10
2019-03-26T21:01:27.099Z,28.80
2019-03-26T21:03:57.353Z,20.07
2019-03-26T21:06:26.715Z,22.60
2019-03-26T21:08:53.819Z,17.33
2019-03-26T21:11:21.280Z,15.73
2019-03-26T21:13:50.869Z,17.27
2019-03-26T21:16:17.900Z,20.60
2019-03-26T21:18:45.429Z,19.90
2019-03-26T21:21:15.596Z,21.87
2019-03-26T21:23:43.144Z,18.10
2019-03-26T21:26:10.566Z,19.17
2019-03-26T21:28:37.933Z,20.33
2019-03-26T21:31:05.270Z,22.70
2019-03-26T21:33:32.826Z,29.80
2019-03-26T21:36:00.291Z,32.23
2019-03-26T21:38:27.787Z,27.30
2019-03-26T21:40:56.310Z,24.23
2019-03-26T21:43:23.728Z,35.53
2019-03-26T21:45:51.245Z,74.60
2019-03-26T21:48:21.567Z,80.80
2019-03-26T21:50:49.115Z,77.57
2019-03-26T21:53:17.678Z,79.00
2019-03-26T21:55:45.090Z,64.93
2019-03-26T21:58:12.549Z,36.37
2019-03-26T22:00:44.078Z,27.97
2019-03-26T22:03:10.187Z,22.80
2019-03-26T22:05:37.820Z,20.60
2019-03-26T22:08:05.307Z,19.10
2019-03-26T22:10:32.798Z,20.50
2019-03-26T22:13:00.210Z,22.87
2019-03-26T22:15:27.695Z,26.17
2019-03-26T22:17:55.414Z,25.97
2019-03-26T22:20:23.193Z,12.70
2019-03-26T22:22:52.203Z,12.80
2019-03-26T22:25:19.627Z,11.07
2019-03-26T22:27:47.046Z,15.83
2019-03-26T22:30:14.565Z,12.87
2019-03-26T22:32:41.967Z,18.90
2019-03-26T22:35:09.472Z,31.83
2019-03-26T22:37:36.927Z,24.67
2019-03-26T22:40:05.945Z,41.63
2019-03-26T22:42:34.287Z,30.60
2019-03-26T22:45:01.687Z,21.70
2019-03-26T22:47:29.130Z,24.63
2019-03-26T22:49:57.405Z,22.17
2019-03-26T22:52:24.915Z,19.33
2019-03-26T22:54:52.342Z,28.03
2019-03-26T22:57:19.701Z,29.33
2019-03-26T22:59:47.195Z,20.60
2019-03-26T23:02:14.582Z,20.47
2019-03-26T23:04:41.940Z,19.70
2019-03-26T23:07:13.079Z,16.93
2019-03-26T23:09:40.435Z,21.07
2019-03-26T23:12:09.197Z,15.00
2019-03-26T23:14:44.965Z,14.33
2019-03-26T23:17:05.609Z,15.10
2019-03-26T23:19:34.207Z,19.47
2019-03-26T23:22:01.773Z,15.27
2019-03-26T23:24:29.264Z,15.57
2019-03-26T23:26:56.661Z,14.47
2019-03-26T23:29:24.074Z,12.37
2019-03-26T23:31:51.415Z,13.60
2019-03-26T23:34:18.745Z,13.40
2019-03-26T23:36:46.301Z,20.53
2019-03-26T23:39:13.700Z,15.13
2019-03-26T23:41:41.041Z,22.43
2019-03-26T23:44:08.442Z,19.90
2019-03-26T23:46:35.853Z,16.13
2019-03-26T23:49:03.508Z,12.47
2019-03-26T23:51:31.740Z,10.93
2019-03-26T23:53:59.087Z,10.77
2019-03-26T23:56:28.583Z,9.33
2019-03-26T23:58:56.012Z,14.20
